Wednesday, June 20, 2018, 7:43 AM GMT
Back to Local

CZBF, Bathurst Airport Aviation Weather Reporting Station

Location: , , Canada Lat: 47.633
Local Time: 7:43 AM GMT ( 7:43 GMT) Lon: -65.75
Time Zone: GMT Elev: 193 ft

Show me the last for .
Show Coded

Time T Td Feel RH Dir Speed Gust Alt SLP Vis Weather Sky Remarks
2018-06-20 07:00 50 45 48 81 240° 5 - 29.67 29.67 15 FEW130 FEW250 None
2018-06-20 06:00 55 45 - 66 280° 8 - 29.66 29.67 15 CLR None
2018-06-20 05:00 54 45 - 71 270° 3 - 29.66 29.67 15 CLR None
2018-06-20 04:00 52 45 - 76 260° 5 - 29.65 29.66 15 CLR None
2018-06-20 03:00 57 45 - 62 280° 3 - 29.65 29.65 15 CLR None
2018-06-20 02:00 59 45 - 58 290° 9 - 29.65 29.65 15 CLR None
2018-06-20 01:00 59 45 - 58 290° 9 - 29.64 29.65 15 FEW040 None
2018-06-20 00:00 61 43 - 51 290° 9 - 29.63 29.63 15 FEW040 FEW080 None
2018-06-19 23:00 61 45 - 55 300° 10 18 29.60 29.61 15 FEW035 FEW040 SCT080 None
2018-06-19 22:00 61 45 - 55 310° 8 18 29.60 29.60 15 FEW040 BKN050 BKN100 None
2018-06-19 21:00 63 43 - 48 300° 17 32 29.57 29.58 15 SCT030 None
2018-06-19 20:00 61 45 - 55 300° 20 29 29.55 29.56 15 BKN025 None
2018-06-19 19:00 61 46 - 59 280° 21 36 29.55 29.55 15 BKN025 BKN120 None
2018-06-19 18:00 63 45 - 51 310° 18 36 29.52 29.53 15 BKN025 None
2018-06-19 17:00 63 46 - 55 320° 14 23 29.51 29.51 15 BKN025 None
2018-06-19 16:00 61 45 - 55 340° 13 31 29.51 29.52 15 BKN025 None
2018-06-19 15:00 61 45 - 55 310° 17 35 29.51 29.51 15 OVC025 None
2018-06-19 14:00 61 45 - 55 320° 16 26 29.49 29.50 15 BKN025 None
2018-06-19 13:00 61 46 - 59 290° 20 30 29.48 29.49 15 SCT025 None
2018-06-19 12:00 61 48 - 63 290° 20 38 29.46 29.46 15 FEW020 FEW100 None
2018-06-19 11:00 61 54 - 77 310° 15 29 29.44 29.44 15 FEW015 FEW100 None
2018-06-19 10:00 63 55 - 77 300° 15 25 29.41 29.42 15 FEW012 FEW100 None
2018-06-19 09:00 63 57 - 82 300° 12 20 29.38 29.39 15 FEW012 None
2018-06-19 08:00 59 59 - 100 290° 6 - 29.38 29.39 12 FEW030 None

Support USWX by starting your Amazon purchase here.